Time;durP1;ratioP1;P1;durP2;ratioP2;P2;SDS_P1;SDS_P2;PMS_P1;PMS_P2;Temp;Humidity;BMP_temperature;BMP_pressure;BME280_temperature;BME280_humidity;BME280_pressure;Samples;Min_cycle;Max_cycle;Signal;HPM_P1;HPM_P2
2021/06/19 00:01:23;;;;;;;;;;;18.60;99.90;;;;;;4130080;28;20093;-77
2021/06/19 00:03:23;;;;;;;;;;;18.60;99.90;;;;;;4130247;28;20003;-78
2021/06/19 00:05:24;;;;;;;;;;;18.50;99.90;;;;;;4130112;28;20462;-77
2021/06/19 00:07:24;;;;;;;;;;;18.50;99.90;;;;;;4129122;28;20003;-78
2021/06/19 00:09:25;;;;;;;;;;;18.50;99.90;;;;;;4145133;28;20089;-78
2021/06/19 00:11:26;;;;;;;;;;;18.60;99.90;;;;;;4129989;28;20007;-77
2021/06/19 00:13:26;;;;;;;;;;;18.70;99.90;;;;;;4128421;28;20124;-77
2021/06/19 00:15:27;;;;;;;;;;;18.70;99.90;;;;;;4128687;28;20090;-78
2021/06/19 00:17:27;;;;;;;;;;;18.80;99.90;;;;;;4130104;28;20445;-77
2021/06/19 00:19:28;;;;;;;;;;;18.80;99.90;;;;;;4129805;28;20013;-77
2021/06/19 00:21:28;;;;;;;;;;;18.80;99.90;;;;;;4129932;28;20025;-78
2021/06/19 00:23:30;;;;;;;;;;;18.80;99.90;;;;;;4139205;28;20539;-77
2021/06/19 00:25:31;;;;;;;;;;;18.80;99.90;;;;;;4130053;28;20006;-77
2021/06/19 00:27:33;;;;;;;;;;;18.90;99.90;;;;;;4129794;28;20465;-77
2021/06/19 00:29:34;;;;;;;;;;;18.90;99.90;;;;;;4129302;28;20362;-77
2021/06/19 00:31:34;;;;;;;;;;;19.00;99.90;;;;;;4131258;28;20007;-77
2021/06/19 00:33:35;;;;;;;;;;;19.00;99.90;;;;;;4145676;28;20037;-77
2021/06/19 00:35:36;;;;;;;;;;;19.10;99.90;;;;;;4128856;28;20061;-78
2021/06/19 00:37:37;;;;;;;;;;;19.10;99.90;;;;;;4129032;28;20017;-77
2021/06/19 00:39:38;;;;;;;;;;;19.10;99.90;;;;;;4129403;28;20050;-77
2021/06/19 00:41:39;;;;;;;;;;;19.20;99.90;;;;;;4130272;28;20030;-78
2021/06/19 00:43:39;;;;;;;;;;;19.30;99.90;;;;;;4129320;28;20486;-77
2021/06/19 00:45:41;;;;;;;;;;;19.30;99.90;;;;;;4130222;28;20010;-77
2021/06/19 00:47:42;;;;;;;;;;;19.40;99.90;;;;;;4145668;28;19998;-77
2021/06/19 00:49:42;;;;;;;;;;;19.40;99.90;;;;;;4129209;28;20052;-77
2021/06/19 00:51:44;;;;;;;;;;;19.30;99.90;;;;;;4129273;28;20013;-78
2021/06/19 00:53:45;;;;;;;;;;;19.30;99.90;;;;;;4145370;28;20010;-77
2021/06/19 00:55:45;;;;;;;;;;;19.20;99.90;;;;;;4130866;28;20056;-77
2021/06/19 00:57:46;;;;;;;;;;;19.30;99.90;;;;;;4130685;28;20007;-77
2021/06/19 00:59:47;;;;;;;;;;;19.20;99.90;;;;;;4130005;28;20089;-77
2021/06/19 01:01:48;;;;;;;;;;;19.30;99.90;;;;;;4129250;28;20006;-78
2021/06/19 01:03:49;;;;;;;;;;;19.40;99.90;;;;;;4129174;28;20006;-78
2021/06/19 01:05:51;;;;;;;;;;;19.40;99.90;;;;;;4129464;28;20033;-78
2021/06/19 01:07:52;;;;;;;;;;;19.40;99.90;;;;;;4130421;28;20373;-77
2021/06/19 01:09:53;;;;;;;;;;;19.30;99.90;;;;;;4129576;28;20081;-77
2021/06/19 01:11:53;;;;;;;;;;;19.30;99.90;;;;;;4130626;28;20491;-77
2021/06/19 01:13:54;;;;;;;;;;;19.30;99.90;;;;;;4128805;28;20105;-77
2021/06/19 01:15:54;;;;;;;;;;;19.20;99.90;;;;;;4145313;28;20081;-78
2021/06/19 01:17:55;;;;;;;;;;;19.30;99.90;;;;;;4130602;28;20010;-78
2021/06/19 01:20:06;;;;;;;;;;;19.30;99.90;;;;;;4145047;28;20029;-77
2021/06/19 01:22:06;;;;;;;;;;;19.40;99.90;;;;;;4130216;28;20006;-78
2021/06/19 01:24:16;;;;;;;;;;;19.50;99.90;;;;;;4128858;28;20007;-78
2021/06/19 01:26:19;;;;;;;;;;;19.60;99.90;;;;;;4145029;28;20017;-78
2021/06/19 01:28:19;;;;;;;;;;;19.60;99.90;;;;;;4130706;28;20393;-78
2021/06/19 01:30:21;;;;;;;;;;;19.60;99.90;;;;;;4130635;28;20002;-78
2021/06/19 01:32:26;;;;;;;;;;;19.60;99.90;;;;;;4129515;28;20065;-77
2021/06/19 01:34:27;;;;;;;;;;;19.50;99.90;;;;;;4133765;28;20003;-78
2021/06/19 01:36:27;;;;;;;;;;;19.50;99.90;;;;;;4133800;28;20077;-78
2021/06/19 01:38:28;;;;;;;;;;;19.40;99.90;;;;;;4147977;28;20549;-78
2021/06/19 01:40:29;;;;;;;;;;;19.40;99.90;;;;;;4132882;28;20021;-77
2021/06/19 01:42:30;;;;;;;;;;;19.40;99.90;;;;;;4133325;28;20046;-78
2021/06/19 01:44:32;;;;;;;;;;;19.40;99.90;;;;;;4131527;28;20073;-78
2021/06/19 01:46:34;;;;;;;;;;;19.40;99.90;;;;;;4133126;28;20007;-78
2021/06/19 01:48:35;;;;;;;;;;;19.40;99.90;;;;;;4131724;28;20057;-77
2021/06/19 01:50:36;;;;;;;;;;;19.30;99.90;;;;;;4131659;28;20462;-78
2021/06/19 01:52:37;;;;;;;;;;;19.30;99.90;;;;;;4131913;28;20089;-77
2021/06/19 01:54:40;;;;;;;;;;;19.20;99.90;;;;;;4148194;28;20007;-78
2021/06/19 01:56:41;;;;;;;;;;;19.20;99.90;;;;;;4131361;28;20006;-78
2021/06/19 01:58:42;;;;;;;;;;;19.20;99.90;;;;;;4132865;28;20046;-78
2021/06/19 02:00:42;;;;;;;;;;;19.20;99.90;;;;;;4131807;28;20338;-77
2021/06/19 02:02:43;;;;;;;;;;;19.20;99.90;;;;;;4135666;28;20006;-78
2021/06/19 02:04:47;;;;;;;;;;;19.20;99.90;;;;;;4133292;28;20389;-78
2021/06/19 02:06:48;;;;;;;;;;;19.20;99.90;;;;;;4132969;28;20017;-78
2021/06/19 02:09:18;;;;;;;;;;;19.20;99.90;;;;;;4131226;28;20006;-78
2021/06/19 02:11:18;;;;;;;;;;;19.10;99.90;;;;;;4132598;28;20002;-78
2021/06/19 02:13:19;;;;;;;;;;;19.10;99.90;;;;;;4131310;28;20433;-78
2021/06/19 02:15:20;;;;;;;;;;;19.10;99.90;;;;;;4132950;28;20451;-84
2021/06/19 02:17:21;;;;;;;;;;;19.00;99.90;;;;;;4131247;28;25554;-83
2021/06/19 02:19:23;;;;;;;;;;;19.00;99.90;;;;;;4130380;28;20057;-84
2021/06/19 02:21:24;;;;;;;;;;;18.90;99.90;;;;;;4126671;28;20061;-83
2021/06/19 02:23:27;;;;;;;;;;;18.90;99.90;;;;;;4125652;28;20417;-84
2021/06/19 02:25:28;;;;;;;;;;;19.00;99.90;;;;;;4155499;28;20465;-82
2021/06/19 02:27:29;;;;;;;;;;;19.00;99.90;;;;;;4132661;28;20049;-83
2021/06/19 02:29:31;;;;;;;;;;;19.00;99.90;;;;;;4131996;28;20358;-84
2021/06/19 02:31:31;;;;;;;;;;;19.00;99.90;;;;;;4130763;28;20049;-83
2021/06/19 02:33:33;;;;;;;;;;;19.00;99.90;;;;;;4163414;28;20006;-83
2021/06/19 02:35:34;;;;;;;;;;;18.90;99.90;;;;;;4132516;28;20156;-83
2021/06/19 02:37:35;;;;;;;;;;;19.00;99.90;;;;;;4130039;28;20007;-84
2021/06/19 02:39:35;;;;;;;;;;;19.00;99.90;;;;;;4162982;28;20107;-84
2021/06/19 02:41:36;;;;;;;;;;;19.00;99.90;;;;;;4129851;28;20017;-83
2021/06/19 02:43:36;;;;;;;;;;;19.10;99.90;;;;;;4130844;28;20048;-83
2021/06/19 02:45:37;;;;;;;;;;;19.20;99.90;;;;;;4128704;28;20006;-85
2021/06/19 02:47:42;;;;;;;;;;;19.20;99.90;;;;;;4129786;28;20005;-83
2021/06/19 02:49:42;;;;;;;;;;;19.30;99.90;;;;;;4129640;28;20025;-83
2021/06/19 02:51:43;;;;;;;;;;;19.40;99.90;;;;;;4132342;28;20037;-82
2021/06/19 02:53:43;;;;;;;;;;;19.40;99.90;;;;;;4129545;28;20477;-83
2021/06/19 02:55:44;;;;;;;;;;;19.40;99.90;;;;;;4132048;28;20114;-82
2021/06/19 02:57:45;;;;;;;;;;;19.40;99.90;;;;;;4128272;28;19999;-81
2021/06/19 02:59:45;;;;;;;;;;;19.40;99.90;;;;;;4160298;28;20012;-82
2021/06/19 03:01:46;;;;;;;;;;;19.40;99.90;;;;;;4142841;28;19999;-81
2021/06/19 03:03:48;;;;;;;;;;;19.40;99.90;;;;;;4161894;28;20021;-81
2021/06/19 03:05:48;;;;;;;;;;;19.40;99.90;;;;;;4131889;28;19998;-83
2021/06/19 03:07:49;;;;;;;;;;;19.40;99.90;;;;;;4130425;28;19998;-83
2021/06/19 03:09:49;;;;;;;;;;;19.50;99.90;;;;;;4129292;28;19998;-84
2021/06/19 03:11:51;;;;;;;;;;;19.60;99.90;;;;;;4130454;28;20002;-81
2021/06/19 03:13:51;;;;;;;;;;;19.70;99.90;;;;;;4130499;28;21111;-81
2021/06/19 03:15:52;;;;;;;;;;;19.80;99.90;;;;;;4131847;28;19999;-81
2021/06/19 03:17:54;;;;;;;;;;;19.80;99.90;;;;;;4131870;28;19999;-81
2021/06/19 03:19:54;;;;;;;;;;;19.70;99.90;;;;;;4143384;28;20054;-81
2021/06/19 03:21:58;;;;;;;;;;;19.70;99.90;;;;;;4130514;28;19998;-82
2021/06/19 03:23:59;;;;;;;;;;;19.60;99.90;;;;;;4126070;28;20006;-80
2021/06/19 03:25:59;;;;;;;;;;;19.50;99.90;;;;;;4130304;28;20391;-81
2021/06/19 03:28:03;;;;;;;;;;;19.60;99.90;;;;;;4130151;28;20014;-80
2021/06/19 03:30:05;;;;;;;;;;;19.60;99.90;;;;;;4115854;28;19999;-80
2021/06/19 03:32:06;;;;;;;;;;;19.50;99.90;;;;;;4130228;28;19998;-82
2021/06/19 03:34:07;;;;;;;;;;;19.50;99.90;;;;;;4130416;28;20037;-80
2021/06/19 03:36:08;;;;;;;;;;;19.50;99.90;;;;;;4131734;28;20029;-81
2021/06/19 03:38:08;;;;;;;;;;;19.50;99.90;;;;;;4131261;28;20006;-81
2021/06/19 03:40:09;;;;;;;;;;;19.60;99.90;;;;;;4131402;28;20007;-81
2021/06/19 03:42:12;;;;;;;;;;;19.50;99.90;;;;;;4131142;28;20037;-82
2021/06/19 03:44:12;;;;;;;;;;;19.50;99.90;;;;;;4129647;28;19999;-81
2021/06/19 03:46:13;;;;;;;;;;;19.60;99.90;;;;;;4146257;28;19998;-82
2021/06/19 03:48:16;;;;;;;;;;;19.60;99.90;;;;;;4131133;28;20034;-80
2021/06/19 03:50:18;;;;;;;;;;;19.70;99.90;;;;;;4129827;28;20003;-81
2021/06/19 03:52:19;;;;;;;;;;;19.70;99.90;;;;;;4129789;28;19999;-80
2021/06/19 03:54:20;;;;;;;;;;;19.80;99.90;;;;;;4130324;28;20076;-80
2021/06/19 03:56:20;;;;;;;;;;;19.70;99.90;;;;;;4130967;28;20450;-81
2021/06/19 03:58:24;;;;;;;;;;;19.80;99.90;;;;;;4131462;28;20067;-81
2021/06/19 04:00:25;;;;;;;;;;;19.80;99.90;;;;;;4131205;28;20433;-79
2021/06/19 04:02:28;;;;;;;;;;;19.80;99.90;;;;;;4130956;28;20013;-81
2021/06/19 04:04:28;;;;;;;;;;;19.80;99.90;;;;;;4146114;28;20013;-82
2021/06/19 04:06:29;;;;;;;;;;;19.80;99.90;;;;;;4131698;28;20350;-82
2021/06/19 04:08:30;;;;;;;;;;;19.80;99.90;;;;;;4130526;28;20006;-82
2021/06/19 04:10:30;;;;;;;;;;;19.80;99.90;;;;;;4146265;28;20006;-81
2021/06/19 04:12:32;;;;;;;;;;;19.80;99.90;;;;;;4131132;28;20061;-82
2021/06/19 04:14:33;;;;;;;;;;;19.80;99.90;;;;;;4129961;28;20006;-81
2021/06/19 04:16:34;;;;;;;;;;;19.80;99.90;;;;;;4129948;28;20101;-81
2021/06/19 04:18:35;;;;;;;;;;;19.80;99.90;;;;;;4131134;28;20018;-82
2021/06/19 04:20:35;;;;;;;;;;;19.90;99.90;;;;;;4129633;28;20564;-79
2021/06/19 04:22:42;;;;;;;;;;;19.90;99.90;;;;;;4131454;28;20007;-80
2021/06/19 04:24:43;;;;;;;;;;;19.90;99.90;;;;;;4129420;28;20045;-80
2021/06/19 04:26:43;;;;;;;;;;;19.90;99.90;;;;;;4129516;28;20003;-81
2021/06/19 04:28:44;;;;;;;;;;;19.80;99.90;;;;;;4131026;28;20425;-80
2021/06/19 04:30:44;;;;;;;;;;;19.80;99.90;;;;;;4130952;28;20007;-81
2021/06/19 04:32:45;;;;;;;;;;;19.70;99.90;;;;;;4131251;28;20010;-81
2021/06/19 04:34:47;;;;;;;;;;;19.70;99.90;;;;;;4130709;28;20053;-80
2021/06/19 04:36:52;;;;;;;;;;;19.80;99.90;;;;;;4131070;28;20006;-80
2021/06/19 04:38:53;;;;;;;;;;;19.90;99.90;;;;;;4130470;28;20009;-81
2021/06/19 04:40:58;;;;;;;;;;;20.00;99.90;;;;;;4129685;28;20113;-82
2021/06/19 04:43:06;;;;;;;;;;;19.90;99.90;;;;;;4129728;28;20570;-82
2021/06/19 04:45:08;;;;;;;;;;;19.90;99.90;;;;;;4129030;28;20101;-81
2021/06/19 04:47:09;;;;;;;;;;;19.80;99.90;;;;;;4130934;28;20096;-82
2021/06/19 04:49:11;;;;;;;;;;;19.80;99.90;;;;;;4130353;28;20002;-81
2021/06/19 04:51:14;;;;;;;;;;;19.80;99.90;;;;;;4128944;28;19999;-84
2021/06/19 04:53:15;;;;;;;;;;;19.80;99.90;;;;;;4130178;28;20199;-82
2021/06/19 04:55:16;;;;;;;;;;;19.80;99.90;;;;;;4145822;28;20006;-81
2021/06/19 04:57:17;;;;;;;;;;;19.90;99.90;;;;;;4130807;28;20343;-84
2021/06/19 04:59:18;;;;;;;;;;;20.00;99.90;;;;;;4130500;28;20009;-82
2021/06/19 05:01:18;;;;;;;;;;;20.10;99.90;;;;;;4145620;28;20007;-80
2021/06/19 05:03:19;;;;;;;;;;;20.20;99.90;;;;;;4130803;28;20006;-83
2021/06/19 05:05:23;;;;;;;;;;;20.10;99.90;;;;;;4130914;28;20003;-82
2021/06/19 05:07:24;;;;;;;;;;;20.00;99.90;;;;;;4131555;28;20010;-82
2021/06/19 05:09:25;;;;;;;;;;;20.10;99.90;;;;;;4148573;28;20006;-82
2021/06/19 05:11:26;;;;;;;;;;;20.00;99.90;;;;;;4132373;28;20049;-82
2021/06/19 05:13:26;;;;;;;;;;;20.10;99.90;;;;;;4134104;28;20007;-81
2021/06/19 05:15:27;;;;;;;;;;;20.00;99.90;;;;;;4132536;28;20094;-82
2021/06/19 05:17:28;;;;;;;;;;;20.00;99.90;;;;;;4133810;28;20152;-83
2021/06/19 05:19:28;;;;;;;;;;;20.20;99.90;;;;;;4133104;28;20522;-82
2021/06/19 05:21:29;;;;;;;;;;;20.10;99.90;;;;;;4133919;28;20017;-82
2021/06/19 05:23:29;;;;;;;;;;;20.10;99.90;;;;;;4132538;28;20013;-82
2021/06/19 05:25:30;;;;;;;;;;;20.20;99.90;;;;;;4133519;28;20105;-82
2021/06/19 05:27:31;;;;;;;;;;;20.10;99.90;;;;;;4133702;28;20007;-81
2021/06/19 05:29:31;;;;;;;;;;;20.10;99.90;;;;;;4132554;28;20006;-83
2021/06/19 05:31:32;;;;;;;;;;;20.10;99.90;;;;;;4148428;28;20013;-82
2021/06/19 05:33:34;;;;;;;;;;;20.20;99.90;;;;;;4133897;28;20010;-81
2021/06/19 05:35:36;;;;;;;;;;;20.20;99.90;;;;;;4148422;28;20013;-82
2021/06/19 05:37:38;;;;;;;;;;;20.20;99.90;;;;;;4133507;28;20006;-84
2021/06/19 05:39:38;;;;;;;;;;;20.30;99.90;;;;;;4131916;28;20077;-81
2021/06/19 05:41:39;;;;;;;;;;;20.20;99.90;;;;;;4148080;28;20025;-82
2021/06/19 05:43:41;;;;;;;;;;;20.20;99.90;;;;;;4133309;28;20002;-82
2021/06/19 05:45:41;;;;;;;;;;;20.10;99.90;;;;;;4133376;28;20045;-83
2021/06/19 05:47:42;;;;;;;;;;;20.20;99.90;;;;;;4133376;28;20517;-83
2021/06/19 05:49:42;;;;;;;;;;;20.40;99.90;;;;;;4133436;28;20017;-82
2021/06/19 05:51:44;;;;;;;;;;;20.40;99.90;;;;;;4132058;28;20022;-82
2021/06/19 05:53:46;;;;;;;;;;;20.40;99.90;;;;;;4134172;28;20010;-83
2021/06/19 05:55:46;;;;;;;;;;;20.40;99.90;;;;;;4131951;28;20007;-82
2021/06/19 05:57:47;;;;;;;;;;;20.30;99.90;;;;;;4147861;28;20005;-81
2021/06/19 05:59:47;;;;;;;;;;;20.30;99.90;;;;;;4132937;28;20017;-83
2021/06/19 06:01:48;;;;;;;;;;;20.30;99.90;;;;;;4133335;28;20133;-82
2021/06/19 06:03:48;;;;;;;;;;;20.30;99.90;;;;;;4131966;28;20002;-82
2021/06/19 06:05:49;;;;;;;;;;;20.30;99.90;;;;;;4131323;28;20009;-83
2021/06/19 06:07:52;;;;;;;;;;;20.30;99.90;;;;;;4163826;28;19998;-82
2021/06/19 06:09:53;;;;;;;;;;;20.40;99.90;;;;;;4142888;28;20002;-82
2021/06/19 06:11:53;;;;;;;;;;;20.50;99.90;;;;;;4124772;28;20418;-81
2021/06/19 06:13:54;;;;;;;;;;;20.50;99.90;;;;;;4157199;28;20501;-81
2021/06/19 06:15:54;;;;;;;;;;;20.60;99.90;;;;;;4130490;28;19998;-80
2021/06/19 06:17:56;;;;;;;;;;;20.70;99.90;;;;;;4163527;28;20013;-84
2021/06/19 06:19:57;;;;;;;;;;;20.70;99.90;;;;;;4130698;28;20089;-82
2021/06/19 06:21:57;;;;;;;;;;;20.80;99.90;;;;;;4129405;28;19999;-83
2021/06/19 06:23:57;;;;;;;;;;;20.90;99.90;;;;;;4132799;28;20014;-82
2021/06/19 06:25:58;;;;;;;;;;;20.90;99.90;;;;;;4124432;28;20006;-83
2021/06/19 06:27:59;;;;;;;;;;;21.10;99.90;;;;;;4132106;28;20061;-83
2021/06/19 06:30:00;;;;;;;;;;;21.20;99.90;;;;;;4132633;28;20038;-84
2021/06/19 06:32:02;;;;;;;;;;;21.30;99.90;;;;;;4130928;28;20097;-84
2021/06/19 06:34:03;;;;;;;;;;;21.30;99.90;;;;;;4127877;28;20006;-85
2021/06/19 06:36:04;;;;;;;;;;;21.20;99.90;;;;;;4133484;28;20010;-83
2021/06/19 06:38:04;;;;;;;;;;;21.10;99.90;;;;;;4131432;28;20006;-84
2021/06/19 06:40:06;;;;;;;;;;;20.90;99.90;;;;;;4132545;28;20025;-82
2021/06/19 06:42:07;;;;;;;;;;;20.80;99.90;;;;;;4129449;28;20009;-82
2021/06/19 06:44:07;;;;;;;;;;;20.60;99.90;;;;;;4130934;28;20544;-83
2021/06/19 06:46:14;;;;;;;;;;;20.40;99.90;;;;;;4130759;28;20125;-82
2021/06/19 06:48:15;;;;;;;;;;;20.40;99.90;;;;;;4159137;28;20002;-81
2021/06/19 06:50:15;;;;;;;;;;;20.40;99.90;;;;;;4129390;28;20462;-83
2021/06/19 06:52:16;;;;;;;;;;;20.40;99.90;;;;;;4129277;28;19998;-80
2021/06/19 06:54:17;;;;;;;;;;;20.40;99.90;;;;;;4133190;28;19998;-84
2021/06/19 06:56:18;;;;;;;;;;;20.40;99.90;;;;;;4128555;28;19999;-83
2021/06/19 06:58:18;;;;;;;;;;;20.60;99.90;;;;;;4130369;28;20009;-83
2021/06/19 07:00:19;;;;;;;;;;;20.50;99.90;;;;;;4126561;28;20037;-82
2021/06/19 07:02:20;;;;;;;;;;;20.40;99.90;;;;;;4162500;28;20048;-83
2021/06/19 07:04:20;;;;;;;;;;;20.30;99.90;;;;;;4131679;28;20017;-83
2021/06/19 07:06:22;;;;;;;;;;;20.30;99.90;;;;;;4128937;28;20047;-84
2021/06/19 07:08:22;;;;;;;;;;;20.30;99.90;;;;;;4130364;28;20118;-80
2021/06/19 07:10:23;;;;;;;;;;;20.30;99.90;;;;;;4129858;28;20027;-84
2021/06/19 07:12:23;;;;;;;;;;;20.30;99.90;;;;;;4128234;28;21587;-85
2021/06/19 07:14:24;;;;;;;;;;;20.40;99.90;;;;;;4129983;28;20002;-82
2021/06/19 07:16:25;;;;;;;;;;;20.50;99.90;;;;;;4131355;28;20002;-83
2021/06/19 07:18:25;;;;;;;;;;;20.40;99.90;;;;;;4160008;28;20486;-83
2021/06/19 07:20:33;;;;;;;;;;;20.60;99.90;;;;;;4128921;28;20068;-83
2021/06/19 07:22:34;;;;;;;;;;;20.60;99.90;;;;;;4162603;28;20076;-83
2021/06/19 07:24:35;;;;;;;;;;;20.70;99.90;;;;;;4129088;28;20533;-82
2021/06/19 07:26:36;;;;;;;;;;;20.60;99.90;;;;;;4130500;28;20001;-80
2021/06/19 07:28:36;;;;;;;;;;;20.60;99.90;;;;;;4131726;28;20029;-83
2021/06/19 07:30:37;;;;;;;;;;;20.70;99.90;;;;;;4162377;28;20044;-81
2021/06/19 07:32:38;;;;;;;;;;;20.60;99.90;;;;;;4131294;28;20034;-82
2021/06/19 07:34:38;;;;;;;;;;;20.60;99.90;;;;;;4130230;28;20334;-83
2021/06/19 07:36:43;;;;;;;;;;;20.70;99.90;;;;;;4130076;28;20427;-82
2021/06/19 07:38:44;;;;;;;;;;;20.70;99.90;;;;;;4130631;28;20042;-83
2021/06/19 07:40:45;;;;;;;;;;;20.90;99.90;;;;;;4130033;28;20014;-83
2021/06/19 07:42:51;;;;;;;;;;;20.90;99.90;;;;;;4129677;28;20362;-83
2021/06/19 07:44:52;;;;;;;;;;;21.00;99.90;;;;;;4150657;28;20006;-81
2021/06/19 07:46:59;;;;;;;;;;;21.00;99.90;;;;;;4127212;28;20101;-83
2021/06/19 07:48:59;;;;;;;;;;;21.10;99.90;;;;;;4129854;28;20007;-81
2021/06/19 07:51:01;;;;;;;;;;;21.10;99.90;;;;;;4158568;28;20421;-83
2021/06/19 07:53:02;;;;;;;;;;;21.10;99.90;;;;;;4130606;28;19999;-81
2021/06/19 07:55:03;;;;;;;;;;;21.20;99.90;;;;;;4126881;28;20125;-81
2021/06/19 07:57:06;;;;;;;;;;;21.20;99.90;;;;;;4154762;28;19998;-81
2021/06/19 07:59:07;;;;;;;;;;;21.00;99.90;;;;;;4129423;28;20105;-81
2021/06/19 08:01:07;;;;;;;;;;;21.00;99.90;;;;;;4131106;28;20010;-80
2021/06/19 08:03:08;;;;;;;;;;;21.00;99.90;;;;;;4131149;28;20505;-82
2021/06/19 08:05:08;;;;;;;;;;;20.80;99.90;;;;;;4130631;28;20053;-80
2021/06/19 08:07:10;;;;;;;;;;;20.90;99.90;;;;;;4129536;28;19998;-81
2021/06/19 08:09:11;;;;;;;;;;;21.00;99.90;;;;;;4132594;28;20013;-82
2021/06/19 08:11:18;;;;;;;;;;;20.90;99.90;;;;;;4131179;28;19998;-81
2021/06/19 08:13:24;;;;;;;;;;;20.90;99.90;;;;;;4129748;28;20005;-82
2021/06/19 08:15:26;;;;;;;;;;;21.00;99.90;;;;;;4130427;28;20069;-82
2021/06/19 08:17:27;;;;;;;;;;;21.00;99.90;;;;;;4131059;28;20458;-81
2021/06/19 08:19:27;;;;;;;;;;;20.80;99.90;;;;;;4162002;28;20010;-81
2021/06/19 08:21:28;;;;;;;;;;;21.00;99.90;;;;;;4129032;28;20117;-80
2021/06/19 08:23:28;;;;;;;;;;;20.90;99.90;;;;;;4134293;28;20012;-81
2021/06/19 08:25:29;;;;;;;;;;;20.80;99.90;;;;;;4130586;28;20102;-82
2021/06/19 08:27:37;;;;;;;;;;;20.80;99.90;;;;;;4157259;28;20014;-83
2021/06/19 08:29:37;;;;;;;;;;;20.80;99.90;;;;;;4130655;28;20116;-81
2021/06/19 08:31:39;;;;;;;;;;;20.70;99.90;;;;;;4130684;28;19998;-80
2021/06/19 08:33:40;;;;;;;;;;;20.70;99.90;;;;;;4129199;28;20010;-79
2021/06/19 08:35:41;;;;;;;;;;;20.70;99.90;;;;;;4130714;28;20438;-78
2021/06/19 08:37:42;;;;;;;;;;;20.60;99.90;;;;;;4128235;28;20050;-79
2021/06/19 08:39:43;;;;;;;;;;;20.70;99.90;;;;;;4129129;28;20056;-78
2021/06/19 08:41:48;;;;;;;;;;;20.60;99.90;;;;;;4130240;28;20454;-79
2021/06/19 08:43:48;;;;;;;;;;;20.60;99.90;;;;;;4133910;28;20006;-78
2021/06/19 08:45:50;;;;;;;;;;;20.70;99.90;;;;;;4134181;28;19998;-79
2021/06/19 08:47:51;;;;;;;;;;;20.60;99.90;;;;;;4134067;28;20003;-80
2021/06/19 08:49:52;;;;;;;;;;;20.40;99.90;;;;;;4164886;28;20013;-79
2021/06/19 08:51:54;;;;;;;;;;;20.40;99.90;;;;;;4133646;28;20057;-79
2021/06/19 08:53:55;;;;;;;;;;;20.50;99.90;;;;;;4133350;28;20007;-79
2021/06/19 08:55:55;;;;;;;;;;;20.40;99.90;;;;;;4132616;28;20005;-79
2021/06/19 08:57:56;;;;;;;;;;;20.40;99.90;;;;;;4132265;28;20023;-80
2021/06/19 08:59:56;;;;;;;;;;;20.40;99.90;;;;;;4131256;28;20449;-79
2021/06/19 09:01:57;;;;;;;;;;;20.40;99.90;;;;;;4133069;28;20064;-79
2021/06/19 09:03:59;;;;;;;;;;;20.30;99.90;;;;;;4131935;28;19999;-79
2021/06/19 09:06:16;;;;;;;;;;;20.20;99.90;;;;;;4163993;28;20041;-79
2021/06/19 09:08:17;;;;;;;;;;;20.00;99.90;;;;;;4133154;28;20026;-79
2021/06/19 09:10:28;;;;;;;;;;;20.10;99.90;;;;;;4132964;28;20354;-79
2021/06/19 09:12:29;;;;;;;;;;;20.20;99.90;;;;;;4147879;28;20009;-79
2021/06/19 09:14:30;;;;;;;;;;;20.60;99.90;;;;;;4130037;28;20328;-80
2021/06/19 09:16:31;;;;;;;;;;;20.70;99.90;;;;;;4130765;28;20447;-78
2021/06/19 09:18:32;;;;;;;;;;;20.70;99.90;;;;;;4133419;28;20061;-78
2021/06/19 09:20:40;;;;;;;;;;;20.40;99.90;;;;;;4132811;28;20023;-80
2021/06/19 09:22:41;;;;;;;;;;;20.30;99.90;;;;;;4133363;28;20014;-79
2021/06/19 09:24:42;;;;;;;;;;;20.20;99.90;;;;;;4133318;28;20056;-79
2021/06/19 09:26:42;;;;;;;;;;;20.20;99.90;;;;;;4132963;28;20024;-79
2021/06/19 09:29:00;;;;;;;;;;;20.20;99.90;;;;;;4133179;28;20010;-79
2021/06/19 09:31:00;;;;;;;;;;;20.10;99.90;;;;;;4131727;28;19998;-80
2021/06/19 09:33:06;;;;;;;;;;;20.20;99.90;;;;;;4132769;28;20017;-80
2021/06/19 09:35:13;;;;;;;;;;;20.30;99.90;;;;;;4132030;28;19999;-79
2021/06/19 09:37:14;;;;;;;;;;;20.20;99.90;;;;;;4133109;28;20337;-80
2021/06/19 09:39:16;;;;;;;;;;;20.30;99.90;;;;;;4131768;28;20010;-80
2021/06/19 09:41:32;;;;;;;;;;;20.40;99.90;;;;;;4131391;28;20014;-80
2021/06/19 09:43:43;;;;;;;;;;;20.50;99.90;;;;;;4148089;28;20006;-79
2021/06/19 09:46:03;;;;;;;;;;;20.60;99.90;;;;;;4132368;28;19998;-80
2021/06/19 09:48:05;;;;;;;;;;;20.40;99.90;;;;;;4148043;28;20002;-79
2021/06/19 09:50:07;;;;;;;;;;;20.60;99.90;;;;;;4115554;28;20011;-79
2021/06/19 09:52:11;;;;;;;;;;;20.90;99.90;;;;;;4133295;28;20471;-79
2021/06/19 09:54:12;;;;;;;;;;;21.10;99.90;;;;;;4117810;28;19999;-79
2021/06/19 09:56:14;;;;;;;;;;;21.40;99.90;;;;;;4133020;28;20006;-79
2021/06/19 09:58:35;;;;;;;;;;;21.40;99.90;;;;;;4147287;28;20081;-80
2021/06/19 10:00:37;;;;;;;;;;;21.40;99.90;;;;;;4147642;28;20068;-79
2021/06/19 10:02:39;;;;;;;;;;;21.20;99.90;;;;;;4131993;28;20589;-80
2021/06/19 10:04:39;;;;;;;;;;;21.40;99.90;;;;;;4132196;28;20040;-80
2021/06/19 10:06:40;;;;;;;;;;;21.40;99.90;;;;;;4132150;28;20010;-80
2021/06/19 10:08:43;;;;;;;;;;;21.20;99.90;;;;;;4131749;28;20476;-81
2021/06/19 10:10:45;;;;;;;;;;;21.20;99.90;;;;;;4130858;28;20010;-79
2021/06/19 10:12:47;;;;;;;;;;;21.30;99.90;;;;;;4132433;28;20011;-80
2021/06/19 10:14:49;;;;;;;;;;;21.50;99.90;;;;;;4151529;28;19998;-81
2021/06/19 10:16:51;;;;;;;;;;;21.60;99.90;;;;;;4133077;28;20458;-79
2021/06/19 10:18:52;;;;;;;;;;;21.60;99.90;;;;;;4132342;28;20086;-82
2021/06/19 10:20:53;;;;;;;;;;;21.50;99.90;;;;;;4131967;28;20018;-80
2021/06/19 10:22:54;;;;;;;;;;;21.20;99.90;;;;;;4130528;28;20011;-81
2021/06/19 10:24:55;;;;;;;;;;;21.10;99.90;;;;;;4135850;28;20003;-81
2021/06/19 10:26:57;;;;;;;;;;;20.90;99.90;;;;;;4137756;28;20094;-79
2021/06/19 10:28:59;;;;;;;;;;;20.70;99.90;;;;;;4131894;28;20017;-80
2021/06/19 10:31:01;;;;;;;;;;;20.60;99.90;;;;;;4130312;28;20144;-78
2021/06/19 10:33:22;;;;;;;;;;;20.70;99.90;;;;;;4144018;28;20009;-79
2021/06/19 10:35:43;;;;;;;;;;;20.70;99.90;;;;;;4143315;28;20084;-79
2021/06/19 10:37:45;;;;;;;;;;;20.60;99.90;;;;;;4127610;28;20124;-79
2021/06/19 10:39:45;;;;;;;;;;;20.70;99.90;;;;;;4130825;28;20018;-79
2021/06/19 10:41:50;;;;;;;;;;;20.40;99.90;;;;;;4131197;28;19999;-80
2021/06/19 10:43:52;;;;;;;;;;;20.20;99.90;;;;;;4131783;28;20474;-78
2021/06/19 10:45:53;;;;;;;;;;;20.20;99.90;;;;;;4130707;28;20010;-80
2021/06/19 10:48:01;;;;;;;;;;;20.20;99.90;;;;;;4129958;28;20499;-79
2021/06/19 10:50:02;;;;;;;;;;;20.30;99.90;;;;;;4130434;28;20555;-79
2021/06/19 10:52:22;;;;;;;;;;;20.20;99.90;;;;;;4132016;28;20007;-79
2021/06/19 10:54:26;;;;;;;;;;;20.30;99.90;;;;;;4122429;28;20489;-79
2021/06/19 10:56:45;;;;;;;;;;;20.50;99.90;;;;;;4146428;28;20527;-80
2021/06/19 10:59:06;;;;;;;;;;;20.70;99.90;;;;;;4132199;28;20032;-78
2021/06/19 11:01:07;;;;;;;;;;;21.00;99.90;;;;;;4119809;28;20007;-77
2021/06/19 11:03:08;;;;;;;;;;;21.20;99.90;;;;;;4132202;28;19998;-79
2021/06/19 11:05:08;;;;;;;;;;;21.50;99.90;;;;;;4129551;28;20022;-78
2021/06/19 11:07:29;;;;;;;;;;;21.90;99.90;;;;;;4143146;28;20096;-78
2021/06/19 11:09:37;;;;;;;;;;;22.30;99.90;;;;;;4123222;28;20046;-79
2021/06/19 11:11:58;;;;;;;;;;;22.60;99.90;;;;;;4130331;28;20494;-79
2021/06/19 11:13:59;;;;;;;;;;;22.80;99.90;;;;;;4131363;28;20085;-78
2021/06/19 11:17:09;;;;;;;14.75;12.70;;;23.20;99.90;;;;;;4220715;27;20451;-75
2021/06/19 11:19:10;;;;;;;15.75;13.30;;;23.40;99.90;;;;;;4193990;28;20086;-75
2021/06/19 11:21:12;;;;;;;13.85;12.55;;;23.80;99.90;;;;;;4192393;28;20036;-76
2021/06/19 11:23:14;;;;;;;13.70;12.43;;;23.80;99.90;;;;;;4190906;28;20479;-75
2021/06/19 11:25:24;;;;;;;13.30;12.00;;;23.80;99.90;;;;;;4207850;28;20398;-75
2021/06/19 11:27:48;;;;;;;16.67;12.77;;;23.50;99.90;;;;;;4208842;28;20040;-77
2021/06/19 11:29:48;;;;;;;16.95;14.10;;;23.30;99.90;;;;;;4207876;28;20390;-76
2021/06/19 11:31:49;;;;;;;20.73;15.90;;;23.00;99.90;;;;;;4209621;28;20024;-76
2021/06/19 11:33:52;;;;;;;16.58;14.88;;;22.50;99.90;;;;;;4208427;28;20028;-77
2021/06/19 11:36:15;;;;;;;18.25;16.35;;;22.10;99.90;;;;;;4208699;28;20056;-77
2021/06/19 11:38:17;;;;;;;16.27;14.68;;;21.80;99.90;;;;;;4209235;28;20040;-76
2021/06/19 11:40:30;;;;;;;17.88;14.93;;;21.30;99.90;;;;;;4209172;28;20027;-76
2021/06/19 11:42:42;;;;;;;16.98;15.27;;;21.30;99.90;;;;;;4209130;28;20086;-76
2021/06/19 11:44:45;;;;;;;15.13;13.07;;;21.50;99.90;;;;;;4208439;28;20506;-76
2021/06/19 11:46:51;;;;;;;;;;;21.60;99.90;;;;;;4209253;28;20045;-77
2021/06/19 11:49:07;;;;;;;17.77;15.60;;;21.90;99.90;;;;;;4201747;28;19958;-76